Airfield :
LOGIN :

Register | Disclaimer

   EN    FR    IT 

 










Legend :    VFR   Marginal VFR   IFR   Intensive IFR   Very Intensive IFR
Visi :
Ceiling :
>= 8 km
>= 3000ft
5 to 8 km
1000 to 3000 ft
1500m to 5 km
500 to 1000 ft
800 to 1500m
200 to 500 ft
< 800m
< 200 ft
Symbols :   Thunderstorms  Fog  Heavy snow  Heavy precipitations  Wind > 20 kt
SIGMETs :     Misc.  Thunderstorms  Icing  Turbulence  Mountain Waves  Volcanic Ashes






- Airport Elevation : 374 ft
- IATA code : LIS


LPPT - Lisboa Portela

CURRENT METAR :
  • 300230Z 27003KT 220V320 9999 BKN033 10/08 Q1018

EXPIRED METARs :
  • 300200Z 00000KT 9999 BKN033 09/07 Q1018
  • 300130Z 29003KT 9999 SCT030 09/07 Q1019
  • 300100Z 29002KT 9999 FEW030 09/07 Q1019
  • 300030Z 29003KT 9999 FEW025 09/07 Q1019
  • 300000Z 30004KT 9999 FEW025 10/07 Q1020

TAF TAF LPPT
Valid from the 30 at 00:00 until the 01 at 06:00 UTC


292300Z 3000/0106 33005KT 9999 FEW030
BECMG 3004/3006 15005KT 5000 BR SCT006
PROB30
TEMPO 3006/3010 2000 PRFG BKN003
BECMG 3010/3013 16008KT 6000 -RA SCT012 BKN020
TEMPO 3013/3021 2000 RADZ BR BKN004
BECMG 3017/3019 VRB05KT
BECMG 3021/3024 03008KT 9999 NSW SCT004 BKN008



MET'MAP, your aeronautical weather chart ! - Copyright ORBIFLY December 2007 - Disclaimer

ORBIFLY MET'MAP TEAM :

Programming & Development : Alexandra Zaïnal
Original concept : Baudouin d'Aumeries
Technical & hardware support : Manuel Goepfert
Assistance : Marc-Olivier Méhu




SOURCES & CREDITS :

   NOAA